sensor_id;sensor_type;location;lat;lon;timestamp;temperature;humidity
10306;DHT22;5198;52.382;9.020;2023-05-10T00:01:39;17.10;99.90
10306;DHT22;5198;52.382;9.020;2023-05-10T00:05:43;17.10;99.90
10306;DHT22;5198;52.382;9.020;2023-05-10T00:09:46;17.10;99.90
10306;DHT22;5198;52.382;9.020;2023-05-10T00:13:49;17.10;99.90
10306;DHT22;5198;52.382;9.020;2023-05-10T00:17:52;17.10;99.90
10306;DHT22;5198;52.382;9.020;2023-05-10T00:21:57;17.10;99.90
10306;DHT22;5198;52.382;9.020;2023-05-10T00:26:00;17.00;99.90
10306;DHT22;5198;52.382;9.020;2023-05-10T00:30:04;17.00;99.90
10306;DHT22;5198;52.382;9.020;2023-05-10T00:34:07;17.00;99.90
10306;DHT22;5198;52.382;9.020;2023-05-10T00:38:12;16.90;99.90
10306;DHT22;5198;52.382;9.020;2023-05-10T00:42:16;16.90;99.90
10306;DHT22;5198;52.382;9.020;2023-05-10T00:46:19;16.90;99.90
10306;DHT22;5198;52.382;9.020;2023-05-10T00:50:22;16.90;99.90
10306;DHT22;5198;52.382;9.020;2023-05-10T00:54:27;16.90;99.90
10306;DHT22;5198;52.382;9.020;2023-05-10T00:58:30;16.90;99.90
10306;DHT22;5198;52.382;9.020;2023-05-10T01:02:33;16.90;99.90
10306;DHT22;5198;52.382;9.020;2023-05-10T01:06:37;16.80;99.90
10306;DHT22;5198;52.382;9.020;2023-05-10T01:10:42;16.80;99.90
10306;DHT22;5198;52.382;9.020;2023-05-10T01:14:45;16.80;99.90
10306;DHT22;5198;52.382;9.020;2023-05-10T01:18:49;16.80;99.90
10306;DHT22;5198;52.382;9.020;2023-05-10T01:27:52;16.70;99.90
10306;DHT22;5198;52.382;9.020;2023-05-10T01:32:16;16.70;99.90
10306;DHT22;5198;52.382;9.020;2023-05-10T01:36:26;16.70;99.90
10306;DHT22;5198;52.382;9.020;2023-05-10T01:40:32;16.70;99.90
10306;DHT22;5198;52.382;9.020;2023-05-10T01:44:42;16.60;99.90
10306;DHT22;5198;52.382;9.020;2023-05-10T01:48:48;16.60;99.90
10306;DHT22;5198;52.382;9.020;2023-05-10T01:52:55;16.50;99.90
10306;DHT22;5198;52.382;9.020;2023-05-10T01:57:01;16.50;99.90
10306;DHT22;5198;52.382;9.020;2023-05-10T02:01:07;16.40;99.90
10306;DHT22;5198;52.382;9.020;2023-05-10T02:05:13;16.40;99.90
10306;DHT22;5198;52.382;9.020;2023-05-10T02:09:17;16.30;99.90
10306;DHT22;5198;52.382;9.020;2023-05-10T02:13:20;16.20;99.90
10306;DHT22;5198;52.382;9.020;2023-05-10T02:17:23;16.20;99.90
10306;DHT22;5198;52.382;9.020;2023-05-10T02:21:29;16.10;99.90
10306;DHT22;5198;52.382;9.020;2023-05-10T02:25:32;16.10;99.90
10306;DHT22;5198;52.382;9.020;2023-05-10T02:29:35;16.00;99.90
10306;DHT22;5198;52.382;9.020;2023-05-10T02:33:39;16.00;99.90
10306;DHT22;5198;52.382;9.020;2023-05-10T02:37:43;16.00;99.90
10306;DHT22;5198;52.382;9.020;2023-05-10T02:41:46;15.90;99.90
10306;DHT22;5198;52.382;9.020;2023-05-10T02:45:50;15.90;99.90
10306;DHT22;5198;52.382;9.020;2023-05-10T02:49:53;15.80;99.90
10306;DHT22;5198;52.382;9.020;2023-05-10T02:53:57;15.80;99.90
10306;DHT22;5198;52.382;9.020;2023-05-10T02:58:02;15.80;99.90
10306;DHT22;5198;52.382;9.020;2023-05-10T03:02:05;15.80;99.90
10306;DHT22;5198;52.382;9.020;2023-05-10T03:06:08;15.70;99.90
10306;DHT22;5198;52.382;9.020;2023-05-10T03:10:12;15.70;99.90
10306;DHT22;5198;52.382;9.020;2023-05-10T03:14:18;15.70;99.90
10306;DHT22;5198;52.382;9.020;2023-05-10T03:18:27;15.60;99.90
10306;DHT22;5198;52.382;9.020;2023-05-10T03:22:31;15.60;99.90
10306;DHT22;5198;52.382;9.020;2023-05-10T03:26:36;15.60;99.90
10306;DHT22;5198;52.382;9.020;2023-05-10T03:30:39;15.50;99.90
10306;DHT22;5198;52.382;9.020;2023-05-10T03:34:43;15.50;99.90
10306;DHT22;5198;52.382;9.020;2023-05-10T03:38:46;15.50;99.90
10306;DHT22;5198;52.382;9.020;2023-05-10T03:42:50;15.40;99.90
10306;DHT22;5198;52.382;9.020;2023-05-10T03:46:53;15.40;99.90
10306;DHT22;5198;52.382;9.020;2023-05-10T03:50:56;15.40;99.90
10306;DHT22;5198;52.382;9.020;2023-05-10T03:54:58;15.30;99.90
10306;DHT22;5198;52.382;9.020;2023-05-10T03:59:03;15.30;99.90
10306;DHT22;5198;52.382;9.020;2023-05-10T04:03:08;15.30;99.90
10306;DHT22;5198;52.382;9.020;2023-05-10T04:07:12;15.30;99.90
10306;DHT22;5198;52.382;9.020;2023-05-10T04:11:15;15.30;99.90
10306;DHT22;5198;52.382;9.020;2023-05-10T04:15:19;15.30;99.90
10306;DHT22;5198;52.382;9.020;2023-05-10T04:19:22;15.40;99.90
10306;DHT22;5198;52.382;9.020;2023-05-10T04:23:25;15.40;99.90
10306;DHT22;5198;52.382;9.020;2023-05-10T04:27:28;15.40;99.90
10306;DHT22;5198;52.382;9.020;2023-05-10T04:31:32;15.40;99.90
10306;DHT22;5198;52.382;9.020;2023-05-10T04:35:38;15.40;99.90
10306;DHT22;5198;52.382;9.020;2023-05-10T04:39:41;15.40;99.90
10306;DHT22;5198;52.382;9.020;2023-05-10T04:43:44;15.40;99.90
10306;DHT22;5198;52.382;9.020;2023-05-10T04:47:48;15.40;99.90
10306;DHT22;5198;52.382;9.020;2023-05-10T04:51:51;15.40;99.90
10306;DHT22;5198;52.382;9.020;2023-05-10T04:55:54;15.40;99.90
10306;DHT22;5198;52.382;9.020;2023-05-10T04:59:57;15.50;99.90
10306;DHT22;5198;52.382;9.020;2023-05-10T05:04:01;15.50;99.90
10306;DHT22;5198;52.382;9.020;2023-05-10T05:08:04;15.50;99.90
10306;DHT22;5198;52.382;9.020;2023-05-10T05:12:07;15.50;99.90
10306;DHT22;5198;52.382;9.020;2023-05-10T05:16:15;15.50;99.90
10306;DHT22;5198;52.382;9.020;2023-05-10T05:20:19;15.50;99.90
10306;DHT22;5198;52.382;9.020;2023-05-10T05:24:22;15.50;99.90
10306;DHT22;5198;52.382;9.020;2023-05-10T05:28:25;15.50;99.90
10306;DHT22;5198;52.382;9.020;2023-05-10T05:32:29;15.50;99.90
10306;DHT22;5198;52.382;9.020;2023-05-10T05:36:35;15.60;99.90
10306;DHT22;5198;52.382;9.020;2023-05-10T05:40:39;15.60;99.90
10306;DHT22;5198;52.382;9.020;2023-05-10T05:44:42;15.60;99.90
10306;DHT22;5198;52.382;9.020;2023-05-10T05:48:45;15.60;99.90
10306;DHT22;5198;52.382;9.020;2023-05-10T05:52:49;15.60;99.90
10306;DHT22;5198;52.382;9.020;2023-05-10T05:56:53;15.50;99.90
10306;DHT22;5198;52.382;9.020;2023-05-10T06:00:56;15.50;99.90
10306;DHT22;5198;52.382;9.020;2023-05-10T06:04:59;15.50;99.90
10306;DHT22;5198;52.382;9.020;2023-05-10T06:09:03;15.50;99.90
10306;DHT22;5198;52.382;9.020;2023-05-10T06:13:06;15.40;99.90
10306;DHT22;5198;52.382;9.020;2023-05-10T06:17:09;15.40;99.90
10306;DHT22;5198;52.382;9.020;2023-05-10T06:21:12;15.30;99.90
10306;DHT22;5198;52.382;9.020;2023-05-10T06:25:16;15.30;99.90
10306;DHT22;5198;52.382;9.020;2023-05-10T06:29:20;15.30;99.90
10306;DHT22;5198;52.382;9.020;2023-05-10T06:33:23;15.20;99.90
10306;DHT22;5198;52.382;9.020;2023-05-10T06:37:26;15.20;99.90
10306;DHT22;5198;52.382;9.020;2023-05-10T06:41:32;15.20;99.90
10306;DHT22;5198;52.382;9.020;2023-05-10T06:45:34;15.20;99.90
10306;DHT22;5198;52.382;9.020;2023-05-10T06:49:38;15.20;99.90
10306;DHT22;5198;52.382;9.020;2023-05-10T06:53:41;15.20;99.90
10306;DHT22;5198;52.382;9.020;2023-05-10T06:57:45;15.20;99.90
10306;DHT22;5198;52.382;9.020;2023-05-10T07:01:48;15.20;99.90
10306;DHT22;5198;52.382;9.020;2023-05-10T07:05:51;15.20;99.90
10306;DHT22;5198;52.382;9.020;2023-05-10T07:09:54;15.30;99.90
10306;DHT22;5198;52.382;9.020;2023-05-10T07:13:59;15.20;99.90
10306;DHT22;5198;52.382;9.020;2023-05-10T07:18:02;15.30;99.90
10306;DHT22;5198;52.382;9.020;2023-05-10T07:22:07;15.30;99.90
10306;DHT22;5198;52.382;9.020;2023-05-10T07:26:10;15.40;99.90
10306;DHT22;5198;52.382;9.020;2023-05-10T07:30:15;15.40;99.90
10306;DHT22;5198;52.382;9.020;2023-05-10T07:34:18;15.40;99.90
10306;DHT22;5198;52.382;9.020;2023-05-10T07:38:21;15.40;99.90
10306;DHT22;5198;52.382;9.020;2023-05-10T07:42:23;15.30;99.90
10306;DHT22;5198;52.382;9.020;2023-05-10T07:46:28;15.30;99.90
10306;DHT22;5198;52.382;9.020;2023-05-10T07:50:31;15.30;99.90
10306;DHT22;5198;52.382;9.020;2023-05-10T07:54:33;15.30;99.90
10306;DHT22;5198;52.382;9.020;2023-05-10T07:58:36;15.30;99.90
10306;DHT22;5198;52.382;9.020;2023-05-10T08:02:41;15.30;99.90
10306;DHT22;5198;52.382;9.020;2023-05-10T08:06:44;15.30;99.90
10306;DHT22;5198;52.382;9.020;2023-05-10T08:10:47;15.30;99.90
10306;DHT22;5198;52.382;9.020;2023-05-10T08:14:49;15.40;99.90
10306;DHT22;5198;52.382;9.020;2023-05-10T08:18:54;15.40;99.90
10306;DHT22;5198;52.382;9.020;2023-05-10T08:22:57;15.40;99.90
10306;DHT22;5198;52.382;9.020;2023-05-10T08:26:59;15.50;99.90
10306;DHT22;5198;52.382;9.020;2023-05-10T08:31:04;15.60;99.90
10306;DHT22;5198;52.382;9.020;2023-05-10T08:35:08;15.80;99.90
10306;DHT22;5198;52.382;9.020;2023-05-10T08:39:11;16.00;99.90
10306;DHT22;5198;52.382;9.020;2023-05-10T08:43:27;16.10;99.90
10306;DHT22;5198;52.382;9.020;2023-05-10T08:47:31;16.30;99.90
10306;DHT22;5198;52.382;9.020;2023-05-10T08:51:36;16.40;99.90
10306;DHT22;5198;52.382;9.020;2023-05-10T08:55:43;16.60;99.90
10306;DHT22;5198;52.382;9.020;2023-05-10T08:59:45;16.70;99.90
10306;DHT22;5198;52.382;9.020;2023-05-10T09:03:49;16.80;99.90
10306;DHT22;5198;52.382;9.020;2023-05-10T09:07:54;16.80;99.90
10306;DHT22;5198;52.382;9.020;2023-05-10T09:11:57;16.90;99.90
10306;DHT22;5198;52.382;9.020;2023-05-10T09:16:00;16.90;99.90
10306;DHT22;5198;52.382;9.020;2023-05-10T09:20:21;16.90;99.90
10306;DHT22;5198;52.382;9.020;2023-05-10T09:24:26;16.90;99.90
10306;DHT22;5198;52.382;9.020;2023-05-10T09:28:31;16.90;99.90
10306;DHT22;5198;52.382;9.020;2023-05-10T09:32:37;17.00;99.90
10306;DHT22;5198;52.382;9.020;2023-05-10T09:36:49;17.00;99.90
10306;DHT22;5198;52.382;9.020;2023-05-10T09:40:54;17.00;99.90
10306;DHT22;5198;52.382;9.020;2023-05-10T09:44:59;17.00;99.90
10306;DHT22;5198;52.382;9.020;2023-05-10T09:49:02;17.10;99.90
10306;DHT22;5198;52.382;9.020;2023-05-10T09:53:05;17.10;99.90
10306;DHT22;5198;52.382;9.020;2023-05-10T09:57:10;17.10;99.90
10306;DHT22;5198;52.382;9.020;2023-05-10T10:01:21;17.10;99.90
10306;DHT22;5198;52.382;9.020;2023-05-10T10:05:27;17.10;99.90
10306;DHT22;5198;52.382;9.020;2023-05-10T10:09:30;17.20;99.90
10306;DHT22;5198;52.382;9.020;2023-05-10T10:13:35;17.30;99.90
10306;DHT22;5198;52.382;9.020;2023-05-10T10:17:38;17.50;99.90
10306;DHT22;5198;52.382;9.020;2023-05-10T10:21:41;17.60;99.90
10306;DHT22;5198;52.382;9.020;2023-05-10T10:25:44;17.60;99.90
10306;DHT22;5198;52.382;9.020;2023-05-10T10:30:01;17.70;99.90
10306;DHT22;5198;52.382;9.020;2023-05-10T10:34:06;17.80;99.90
10306;DHT22;5198;52.382;9.020;2023-05-10T10:38:09;18.00;99.90
10306;DHT22;5198;52.382;9.020;2023-05-10T10:42:12;18.20;99.90
10306;DHT22;5198;52.382;9.020;2023-05-10T10:46:17;18.40;99.90
10306;DHT22;5198;52.382;9.020;2023-05-10T10:50:20;18.70;99.90
10306;DHT22;5198;52.382;9.020;2023-05-10T10:54:26;18.90;99.90
10306;DHT22;5198;52.382;9.020;2023-05-10T10:58:30;19.00;99.90
10306;DHT22;5198;52.382;9.020;2023-05-10T11:02:36;19.20;99.90
10306;DHT22;5198;52.382;9.020;2023-05-10T11:06:45;19.40;99.90
10306;DHT22;5198;52.382;9.020;2023-05-10T11:10:49;19.60;99.90
10306;DHT22;5198;52.382;9.020;2023-05-10T11:14:56;19.60;99.90
10306;DHT22;5198;52.382;9.020;2023-05-10T11:19:12;19.60;99.90
10306;DHT22;5198;52.382;9.020;2023-05-10T11:23:15;19.50;99.90
10306;DHT22;5198;52.382;9.020;2023-05-10T11:27:19;19.40;99.90
10306;DHT22;5198;52.382;9.020;2023-05-10T11:31:22;19.50;99.90
10306;DHT22;5198;52.382;9.020;2023-05-10T11:35:29;19.60;99.90
10306;DHT22;5198;52.382;9.020;2023-05-10T11:39:32;19.80;99.90
10306;DHT22;5198;52.382;9.020;2023-05-10T11:43:36;19.90;99.90
10306;DHT22;5198;52.382;9.020;2023-05-10T11:47:40;20.00;99.90
10306;DHT22;5198;52.382;9.020;2023-05-10T11:51:46;20.00;99.90
10306;DHT22;5198;52.382;9.020;2023-05-10T11:55:48;20.00;99.90
10306;DHT22;5198;52.382;9.020;2023-05-10T11:59:52;20.10;99.90
10306;DHT22;5198;52.382;9.020;2023-05-10T12:03:56;20.30;99.90
10306;DHT22;5198;52.382;9.020;2023-05-10T12:08:15;20.60;99.90
10306;DHT22;5198;52.382;9.020;2023-05-10T12:12:18;20.80;99.90
10306;DHT22;5198;52.382;9.020;2023-05-10T12:16:24;20.80;99.90
10306;DHT22;5198;52.382;9.020;2023-05-10T12:20:27;20.80;99.90
10306;DHT22;5198;52.382;9.020;2023-05-10T12:24:31;20.80;99.90
10306;DHT22;5198;52.382;9.020;2023-05-10T12:28:36;20.80;99.90
10306;DHT22;5198;52.382;9.020;2023-05-10T12:32:39;20.70;99.90
10306;DHT22;5198;52.382;9.020;2023-05-10T12:36:43;20.70;99.90
10306;DHT22;5198;52.382;9.020;2023-05-10T12:40:47;20.60;99.90
10306;DHT22;5198;52.382;9.020;2023-05-10T12:44:54;20.50;99.90
10306;DHT22;5198;52.382;9.020;2023-05-10T12:48:57;20.50;99.90
10306;DHT22;5198;52.382;9.020;2023-05-10T12:53:10;20.50;99.90
10306;DHT22;5198;52.382;9.020;2023-05-10T12:57:14;20.50;99.90
10306;DHT22;5198;52.382;9.020;2023-05-10T13:01:17;20.60;99.90
10306;DHT22;5198;52.382;9.020;2023-05-10T13:05:20;20.70;99.90
10306;DHT22;5198;52.382;9.020;2023-05-10T13:09:23;20.80;99.90
10306;DHT22;5198;52.382;9.020;2023-05-10T13:13:27;20.90;99.90
10306;DHT22;5198;52.382;9.020;2023-05-10T13:17:30;20.80;99.90
10306;DHT22;5198;52.382;9.020;2023-05-10T13:21:34;20.70;99.90
10306;DHT22;5198;52.382;9.020;2023-05-10T13:25:37;20.50;99.90
10306;DHT22;5198;52.382;9.020;2023-05-10T13:29:41;20.40;99.90
10306;DHT22;5198;52.382;9.020;2023-05-10T13:33:46;20.40;99.90
10306;DHT22;5198;52.382;9.020;2023-05-10T13:37:49;20.50;99.90
10306;DHT22;5198;52.382;9.020;2023-05-10T13:41:53;20.60;99.90
10306;DHT22;5198;52.382;9.020;2023-05-10T13:45:58;20.60;99.90
10306;DHT22;5198;52.382;9.020;2023-05-10T13:50:01;20.60;99.90
10306;DHT22;5198;52.382;9.020;2023-05-10T13:54:05;20.50;99.90
10306;DHT22;5198;52.382;9.020;2023-05-10T13:58:08;20.40;99.90
10306;DHT22;5198;52.382;9.020;2023-05-10T14:02:13;20.40;99.90
10306;DHT22;5198;52.382;9.020;2023-05-10T14:06:16;20.50;99.90
10306;DHT22;5198;52.382;9.020;2023-05-10T14:10:19;20.70;99.90
10306;DHT22;5198;52.382;9.020;2023-05-10T14:14:22;20.70;99.90
10306;DHT22;5198;52.382;9.020;2023-05-10T14:18:26;20.60;99.90
10306;DHT22;5198;52.382;9.020;2023-05-10T14:22:31;20.60;99.90
10306;DHT22;5198;52.382;9.020;2023-05-10T14:26:34;20.60;99.90
10306;DHT22;5198;52.382;9.020;2023-05-10T14:30:36;20.70;99.90
10306;DHT22;5198;52.382;9.020;2023-05-10T14:34:41;20.70;99.90
10306;DHT22;5198;52.382;9.020;2023-05-10T14:38:43;20.80;99.90
10306;DHT22;5198;52.382;9.020;2023-05-10T14:42:46;20.90;99.90
10306;DHT22;5198;52.382;9.020;2023-05-10T14:46:50;21.00;99.90
10306;DHT22;5198;52.382;9.020;2023-05-10T14:50:54;21.00;99.90
10306;DHT22;5198;52.382;9.020;2023-05-10T14:54:57;21.00;99.90
10306;DHT22;5198;52.382;9.020;2023-05-10T14:59:01;20.90;99.90
10306;DHT22;5198;52.382;9.020;2023-05-10T15:03:05;21.00;99.90
10306;DHT22;5198;52.382;9.020;2023-05-10T15:07:10;21.00;99.90
10306;DHT22;5198;52.382;9.020;2023-05-10T15:11:15;21.00;99.90
10306;DHT22;5198;52.382;9.020;2023-05-10T15:15:19;20.90;99.90
10306;DHT22;5198;52.382;9.020;2023-05-10T15:19:25;20.80;99.90
10306;DHT22;5198;52.382;9.020;2023-05-10T15:23:29;20.70;99.90
10306;DHT22;5198;52.382;9.020;2023-05-10T15:27:32;20.50;99.90
10306;DHT22;5198;52.382;9.020;2023-05-10T15:31:35;20.40;99.90
10306;DHT22;5198;52.382;9.020;2023-05-10T15:35:38;20.20;99.90
10306;DHT22;5198;52.382;9.020;2023-05-10T15:39:42;20.10;99.90
10306;DHT22;5198;52.382;9.020;2023-05-10T15:43:45;20.10;99.90
10306;DHT22;5198;52.382;9.020;2023-05-10T15:47:48;20.20;99.90
10306;DHT22;5198;52.382;9.020;2023-05-10T15:51:51;20.20;99.90
10306;DHT22;5198;52.382;9.020;2023-05-10T15:55:55;20.40;99.90
10306;DHT22;5198;52.382;9.020;2023-05-10T15:59:58;20.50;99.90
10306;DHT22;5198;52.382;9.020;2023-05-10T16:04:01;20.50;99.90
10306;DHT22;5198;52.382;9.020;2023-05-10T16:08:04;20.50;99.90
10306;DHT22;5198;52.382;9.020;2023-05-10T16:12:08;20.50;99.90
10306;DHT22;5198;52.382;9.020;2023-05-10T16:16:17;20.50;99.90
10306;DHT22;5198;52.382;9.020;2023-05-10T16:20:20;20.50;99.90
10306;DHT22;5198;52.382;9.020;2023-05-10T16:24:23;20.40;99.90
10306;DHT22;5198;52.382;9.020;2023-05-10T16:28:28;20.40;99.90
10306;DHT22;5198;52.382;9.020;2023-05-10T16:32:31;20.30;99.90
10306;DHT22;5198;52.382;9.020;2023-05-10T16:36:34;20.20;99.90
10306;DHT22;5198;52.382;9.020;2023-05-10T16:40:37;20.10;99.90
10306;DHT22;5198;52.382;9.020;2023-05-10T16:44:51;20.00;99.90
10306;DHT22;5198;52.382;9.020;2023-05-10T16:48:54;19.90;99.90
10306;DHT22;5198;52.382;9.020;2023-05-10T16:52:56;19.90;99.90
10306;DHT22;5198;52.382;9.020;2023-05-10T16:57:00;19.80;99.90
10306;DHT22;5198;52.382;9.020;2023-05-10T17:01:04;19.70;99.90
10306;DHT22;5198;52.382;9.020;2023-05-10T17:05:08;19.60;99.90
10306;DHT22;5198;52.382;9.020;2023-05-10T17:09:10;19.50;99.90
10306;DHT22;5198;52.382;9.020;2023-05-10T17:13:13;19.50;99.90
10306;DHT22;5198;52.382;9.020;2023-05-10T17:17:18;19.40;99.90
10306;DHT22;5198;52.382;9.020;2023-05-10T17:21:21;19.30;99.90
10306;DHT22;5198;52.382;9.020;2023-05-10T17:25:24;19.30;99.90
10306;DHT22;5198;52.382;9.020;2023-05-10T17:29:27;19.20;99.90
10306;DHT22;5198;52.382;9.020;2023-05-10T17:33:33;19.10;99.90
10306;DHT22;5198;52.382;9.020;2023-05-10T17:37:36;19.10;99.90
10306;DHT22;5198;52.382;9.020;2023-05-10T17:41:40;19.00;99.90
10306;DHT22;5198;52.382;9.020;2023-05-10T17:45:46;19.00;99.90
10306;DHT22;5198;52.382;9.020;2023-05-10T17:49:51;19.00;99.90
10306;DHT22;5198;52.382;9.020;2023-05-10T17:53:54;18.90;99.90
10306;DHT22;5198;52.382;9.020;2023-05-10T17:57:57;18.90;99.90
10306;DHT22;5198;52.382;9.020;2023-05-10T18:02:01;18.80;99.90
10306;DHT22;5198;52.382;9.020;2023-05-10T18:06:06;18.70;99.90
10306;DHT22;5198;52.382;9.020;2023-05-10T18:10:10;18.60;99.90
10306;DHT22;5198;52.382;9.020;2023-05-10T18:14:13;18.60;99.90
10306;DHT22;5198;52.382;9.020;2023-05-10T18:18:29;18.50;99.90
10306;DHT22;5198;52.382;9.020;2023-05-10T18:22:33;18.40;99.90
10306;DHT22;5198;52.382;9.020;2023-05-10T18:26:36;18.30;99.90
10306;DHT22;5198;52.382;9.020;2023-05-10T18:30:40;18.20;99.90
10306;DHT22;5198;52.382;9.020;2023-05-10T18:34:43;18.10;99.90
10306;DHT22;5198;52.382;9.020;2023-05-10T18:38:47;18.00;99.90
10306;DHT22;5198;52.382;9.020;2023-05-10T18:42:50;17.90;99.90
10306;DHT22;5198;52.382;9.020;2023-05-10T18:46:53;17.80;99.90
10306;DHT22;5198;52.382;9.020;2023-05-10T18:50:57;17.70;99.90
10306;DHT22;5198;52.382;9.020;2023-05-10T18:55:02;17.60;99.90
10306;DHT22;5198;52.382;9.020;2023-05-10T18:59:05;17.50;99.90
10306;DHT22;5198;52.382;9.020;2023-05-10T19:03:08;17.40;99.90
10306;DHT22;5198;52.382;9.020;2023-05-10T19:07:12;17.30;99.90
10306;DHT22;5198;52.382;9.020;2023-05-10T19:11:16;17.20;99.90
10306;DHT22;5198;52.382;9.020;2023-05-10T19:15:19;17.10;99.90
10306;DHT22;5198;52.382;9.020;2023-05-10T19:19:23;17.00;99.90
10306;DHT22;5198;52.382;9.020;2023-05-10T19:23:26;17.00;99.90
10306;DHT22;5198;52.382;9.020;2023-05-10T19:27:32;16.90;99.90
10306;DHT22;5198;52.382;9.020;2023-05-10T19:31:35;16.80;99.90
10306;DHT22;5198;52.382;9.020;2023-05-10T19:35:39;16.80;99.90
10306;DHT22;5198;52.382;9.020;2023-05-10T19:39:42;16.70;99.90
10306;DHT22;5198;52.382;9.020;2023-05-10T19:43:47;16.70;99.90
10306;DHT22;5198;52.382;9.020;2023-05-10T19:47:51;16.60;99.90
10306;DHT22;5198;52.382;9.020;2023-05-10T19:51:55;16.60;99.90
10306;DHT22;5198;52.382;9.020;2023-05-10T19:56:02;16.50;99.90
10306;DHT22;5198;52.382;9.020;2023-05-10T20:00:08;16.40;99.90
10306;DHT22;5198;52.382;9.020;2023-05-10T20:04:12;16.40;99.90
10306;DHT22;5198;52.382;9.020;2023-05-10T20:08:15;16.40;99.90
10306;DHT22;5198;52.382;9.020;2023-05-10T20:12:18;16.30;99.90
10306;DHT22;5198;52.382;9.020;2023-05-10T20:16:22;16.30;99.90
10306;DHT22;5198;52.382;9.020;2023-05-10T20:20:27;16.20;99.90
10306;DHT22;5198;52.382;9.020;2023-05-10T20:24:30;16.20;99.90
10306;DHT22;5198;52.382;9.020;2023-05-10T20:28:33;16.10;99.90
10306;DHT22;5198;52.382;9.020;2023-05-10T20:32:38;16.10;99.90
10306;DHT22;5198;52.382;9.020;2023-05-10T20:36:41;16.10;99.90
10306;DHT22;5198;52.382;9.020;2023-05-10T20:40:44;16.00;99.90
10306;DHT22;5198;52.382;9.020;2023-05-10T20:44:48;16.00;99.90
10306;DHT22;5198;52.382;9.020;2023-05-10T20:48:53;16.00;99.90
10306;DHT22;5198;52.382;9.020;2023-05-10T20:52:56;16.00;99.90
10306;DHT22;5198;52.382;9.020;2023-05-10T20:57:01;15.90;99.90
10306;DHT22;5198;52.382;9.020;2023-05-10T21:01:04;15.90;99.90
10306;DHT22;5198;52.382;9.020;2023-05-10T21:05:09;15.80;99.90
10306;DHT22;5198;52.382;9.020;2023-05-10T21:09:12;15.80;99.90
10306;DHT22;5198;52.382;9.020;2023-05-10T21:13:15;15.80;99.90
10306;DHT22;5198;52.382;9.020;2023-05-10T21:17:18;15.80;99.90
10306;DHT22;5198;52.382;9.020;2023-05-10T21:21:23;15.70;99.90
10306;DHT22;5198;52.382;9.020;2023-05-10T21:25:26;15.70;99.90
10306;DHT22;5198;52.382;9.020;2023-05-10T21:29:30;15.70;99.90
10306;DHT22;5198;52.382;9.020;2023-05-10T21:33:33;15.70;99.90
10306;DHT22;5198;52.382;9.020;2023-05-10T21:37:37;15.70;99.90
10306;DHT22;5198;52.382;9.020;2023-05-10T21:41:42;15.60;99.90
10306;DHT22;5198;52.382;9.020;2023-05-10T21:45:45;15.70;99.90
10306;DHT22;5198;52.382;9.020;2023-05-10T21:49:48;15.60;99.90
10306;DHT22;5198;52.382;9.020;2023-05-10T21:53:53;15.60;99.90
10306;DHT22;5198;52.382;9.020;2023-05-10T21:57:56;15.60;99.90
10306;DHT22;5198;52.382;9.020;2023-05-10T22:01:59;15.60;99.90
10306;DHT22;5198;52.382;9.020;2023-05-10T22:06:03;15.60;99.90
10306;DHT22;5198;52.382;9.020;2023-05-10T22:10:08;15.60;99.90
10306;DHT22;5198;52.382;9.020;2023-05-10T22:14:11;15.50;99.90
10306;DHT22;5198;52.382;9.020;2023-05-10T22:18:15;15.50;99.90
10306;DHT22;5198;52.382;9.020;2023-05-10T22:22:19;15.50;99.90
10306;DHT22;5198;52.382;9.020;2023-05-10T22:26:24;15.50;99.90
10306;DHT22;5198;52.382;9.020;2023-05-10T22:30:27;15.50;99.90
10306;DHT22;5198;52.382;9.020;2023-05-10T22:34:33;15.50;99.90
10306;DHT22;5198;52.382;9.020;2023-05-10T22:38:37;15.50;99.90
10306;DHT22;5198;52.382;9.020;2023-05-10T22:42:41;15.50;99.90
10306;DHT22;5198;52.382;9.020;2023-05-10T22:46:44;15.50;99.90
10306;DHT22;5198;52.382;9.020;2023-05-10T22:50:47;15.50;99.90
10306;DHT22;5198;52.382;9.020;2023-05-10T22:54:50;15.40;99.90
10306;DHT22;5198;52.382;9.020;2023-05-10T22:58:55;15.40;99.90
10306;DHT22;5198;52.382;9.020;2023-05-10T23:02:58;15.40;99.90
10306;DHT22;5198;52.382;9.020;2023-05-10T23:07:01;15.40;99.90
10306;DHT22;5198;52.382;9.020;2023-05-10T23:11:04;15.40;99.90
10306;DHT22;5198;52.382;9.020;2023-05-10T23:15:10;15.40;99.90
10306;DHT22;5198;52.382;9.020;2023-05-10T23:19:13;15.40;99.90
10306;DHT22;5198;52.382;9.020;2023-05-10T23:27:19;15.30;99.90
10306;DHT22;5198;52.382;9.020;2023-05-10T23:31:24;15.30;99.90
10306;DHT22;5198;52.382;9.020;2023-05-10T23:35:27;15.30;99.90
10306;DHT22;5198;52.382;9.020;2023-05-10T23:39:30;15.30;99.90
10306;DHT22;5198;52.382;9.020;2023-05-10T23:43:33;15.30;99.90
10306;DHT22;5198;52.382;9.020;2023-05-10T23:47:37;15.30;99.90
10306;DHT22;5198;52.382;9.020;2023-05-10T23:51:41;15.30;99.90
10306;DHT22;5198;52.382;9.020;2023-05-10T23:55:44;15.30;99.90
10306;DHT22;5198;52.382;9.020;2023-05-10T23:59:47;15.30;99.90
